Terminal Aerodrome Forecast
Issued by NWS Wilmington, NC

Home | Current Version | Previous Version | Text Only | Print | Product List | Glossary On
Versions: 1 2 3 4 5 6 7 8 9 10 11 12 13 14 15
000
FTUS42 KILM 292008 AAA
TAFMYR
TAF AMD
KMYR 292008Z 2920/3018 19006KT P6SM VCSH SCT020 BKN060 BKN090
      TEMPO 2920/2922 3SM TSRA BKN030CB
     FM301500 18006KT P6SM SKC PROB30 3015/3018 P6SM -SHRA SKC=

USA.gov is the U.S. government's official web portal to all federal, state and local government web resources and services.